HOURLY OBSERVATIONS


Time
(EST)
Temperature
°F
Dew Point
°F
Humidity
%
Wind
mph
Pressure
mb
Precip.
Hour
in
Precip.
Day
in
6 Hr
Max Temp
°F
6 Hr
Min Temp
°F
21 21:00 50 45 86 WSW 2 G 5 1011.7 0.00
21 20:00 49 45 85 SW 2 G 8 1012.2 0.00
21 19:00 51 44 76 W 2 G 9 1011.9 0.00 52 45
21 18:00 51 42 71 WSW 2 G 9 1011.3 0.00
21 17:00 51 41 68 E 1 G 7 1011.9 0.00
21 16:00 49 40 71 S 1 G 6 1012.1 0.00
21 15:00 48 41 75 ENE 1 G 8 1013.2 0.00
21 14:00 47 40 76 SW 1 G 7 1014.5 0.00
21 13:00 45 39 78 S 1 G 8 1016.3 0.00 45 34
21 12:00 44 38 79 WSW 1 G 9 1018.9 0.00
21 11:00 43 37 79 E 0 G 5 1019.7 0.00
21 10:00 42 36 81 S 0 G 8 1020.3 0.00
21 09:00 38 33 81 SSW 0 G 7 1021.2 0.00
21 08:00 36 31 82 WSW 1 G 5 1021.7 0.00
21 07:00 34 30 84 SSW 0 G 5 1022.7 0.00 34 32
21 06:00 33 29 87 Calm 1023.3 0.00
21 05:00 33 29 86 Calm 1023.6 0.00
21 04:00 33 30 87 Calm 1023.8 0.00
21 03:00 33 29 87 Calm 1024.3 0.00
21 02:00 34 30 86 Calm 1024.4 0.00
21 01:00 34 30 85 Calm 1025.0 0.00 40 34
21 00:00 35 31 83 Calm 1025.4 0.00
20 23:00 39 33 79 Calm 1025.5 0.00
20 22:00 40 34 79 Calm 1025.3 0.00
20 21:00 40 34 79 Calm 1025.8 0.00
20 20:00 40 34 79 Calm 1025.3 0.00
20 19:00 40 34 77 Calm 1025.3 0.00 44 40
20 18:00 41 34 76 Calm 1024.9 0.00
20 17:00 42 34 73 Calm 1024.5 0.00
20 16:00 43 34 71 SW 0 G 3 1023.9 0.00
20 15:00 43 34 70 NE 0 G 3 1023.5 0.00
20 14:00 44 35 71 W 0 G 2 1023.4 0.00
20 13:00 43 35 75 SW 0 G 5 1023.3 0.00 43 36
20 12:00 43 36 76 WSW 0 G 2 1023.0 0.00
20 11:00 43 35 75 SSE 0 G 2 1022.9 0.00
20 10:00 41 38 88 Calm 1022.1 0.00
20 09:00 39 36 91 Calm 1021.7 0.00
20 08:00 37 35 91 Calm 1020.9 0.00
20 07:00 36 34 91 Calm 1020.1 0.00 38 35
20 06:00 36 34 91 Calm 1019.0 0.00
20 05:00 37 35 91 SW 0 G 2 1018.5 0.00
20 04:00 37 34 91 Calm 1017.6 0.00
20 03:00 36 33 91 Calm 1017.0 0.00
20 02:00 36 33 89 Calm 1016.1 0.00
20 01:00 38 34 88 Calm 1015.3 0.00 40 38
20 00:00 39 36 89 Calm 1015.0 0.00
19 23:00 39 36 89 Calm 1014.5 0.00
19 22:00 39 36 88 Calm 1014.3 0.00
19 21:00 40 36 88 Calm 1013.9 0.00
19 20:00 40 36 87 Calm 1013.5 0.00
19 19:00 40 36 85 Calm 1013.1 0.00 41 40
19 18:00 40 36 84 Calm 1012.8 0.00
19 17:00 41 36 84 Calm 1012.1 0.00
19 16:00 41 36 84 Calm 1011.3 0.00
19 15:00 41 36 84 Calm 1010.7 0.00
19 14:00 41 37 86 Calm 1010.4 0.00
19 13:00 40 36 86 SW 0 G 2 1010.1 0.00 40 36
19 12:00 40 36 85 Calm 1010.3 0.00
19 11:00 39 35 86 Calm 1010.6 0.00
19 10:00 39 35 87 Calm 1010.3 0.00
19 09:00 38 35 88 Calm 1009.7 0.00
19 08:00 37 34 88 Calm 1009.5 0.00
19 07:00 37 33 87 Calm 1009.3 0.00 37 32
19 06:00 36 33 87 SW 0 G 1 1009.0 0.00
19 05:00 35 31 87 Calm 1008.4 0.00
19 04:00 35 31 86 Calm 1008.2 0.00
19 03:00 34 30 86 SW 0 G 1 1008.3 0.00
19 02:00 33 29 87 Calm 1008.0 0.00
19 01:00 33 29 85 Calm 1007.6 0.00 40 33
19 00:00 34 30 84 Calm 1007.5 0.00
18 23:00 35 30 83 Calm 1007.6 0.00
18 22:00 36 32 83 Calm 1007.6 0.00